Pagina principale
METAR-TAF:

METAR-TAF

Aeroporti :

Rasht, Iran

latitudine: 37-12N, longitudine: 049-38E, altezza: -7 m

Osservazione

Il bollettino è stato emesso 1 ora e 2 minuti fa, alle 18:00 UTC
Vento 6 kt da ovest
Temperature 9°C
Umidità 100%
Pressione 1027 hPa
Visibilità: 7000 m
Poco nuvoloso ad un'altezza di 1500 ft, Cumulonembo.
Nubi sparse ad un'altezza di 2000 ft
Cielo coperto ad un'altezza di 7000 ft
pioggia debole

METAR: OIGG 211800Z 26006KT 7000 -RA FEW015CB SCT020 OVC070 09/09 Q1027

Ora: 22:32 (19:02 UTC)


TAF: mancante

Osservazioni e previsioni meteorologiche di più di 4000 aeroporti (messaggi METAR e TAF).

Le stazioni disponibili sono rappresentate dai dischi gialli e rossi sulla carta.

Puntare il mouse per vedere il nome della stazione.

Clicca sopra per visualizzare le osservazioni e previsioni meteorologiche.

Per cambiare la mappa : fare clic sui pulsanti verdi con una croce nera per ingrandire, il pulsante verde con un trattino per diminuire, o sulla freccia verde per le mappe adiacenti.


METAR-TAF: